sensor_id;sensor_type;location;lat;lon;timestamp;P1;durP1;ratioP1;P2;durP2;ratioP2
18445;SDS011;9352;50.888;4.466;2022-10-17T00:00:24;32.30;;;15.60;;
18445;SDS011;9352;50.888;4.466;2022-10-17T00:02:53;37.15;;;16.48;;
18445;SDS011;9352;50.888;4.466;2022-10-17T00:05:20;33.20;;;15.70;;
18445;SDS011;9352;50.888;4.466;2022-10-17T00:07:47;35.50;;;16.10;;
18445;SDS011;9352;50.888;4.466;2022-10-17T00:10:14;30.52;;;15.68;;
18445;SDS011;9352;50.888;4.466;2022-10-17T00:12:41;33.17;;;16.10;;
18445;SDS011;9352;50.888;4.466;2022-10-17T00:15:10;38.22;;;16.92;;
18445;SDS011;9352;50.888;4.466;2022-10-17T00:17:41;35.72;;;16.33;;
18445;SDS011;9352;50.888;4.466;2022-10-17T00:20:08;35.92;;;16.88;;
18445;SDS011;9352;50.888;4.466;2022-10-17T00:22:36;43.22;;;16.80;;
18445;SDS011;9352;50.888;4.466;2022-10-17T00:25:03;35.90;;;15.73;;
18445;SDS011;9352;50.888;4.466;2022-10-17T00:27:33;40.45;;;16.70;;
18445;SDS011;9352;50.888;4.466;2022-10-17T00:30:00;37.97;;;16.63;;
18445;SDS011;9352;50.888;4.466;2022-10-17T00:32:27;37.88;;;16.63;;
18445;SDS011;9352;50.888;4.466;2022-10-17T00:34:56;39.83;;;16.30;;
18445;SDS011;9352;50.888;4.466;2022-10-17T00:37:23;40.05;;;15.98;;
18445;SDS011;9352;50.888;4.466;2022-10-17T00:39:50;29.75;;;14.82;;
18445;SDS011;9352;50.888;4.466;2022-10-17T00:42:17;34.05;;;16.13;;
18445;SDS011;9352;50.888;4.466;2022-10-17T00:44:56;32.03;;;15.50;;
18445;SDS011;9352;50.888;4.466;2022-10-17T00:47:26;31.55;;;15.60;;
18445;SDS011;9352;50.888;4.466;2022-10-17T00:49:55;32.95;;;15.45;;
18445;SDS011;9352;50.888;4.466;2022-10-17T00:52:24;35.58;;;15.25;;
18445;SDS011;9352;50.888;4.466;2022-10-17T00:54:53;34.33;;;15.43;;
18445;SDS011;9352;50.888;4.466;2022-10-17T00:57:23;36.03;;;14.82;;
18445;SDS011;9352;50.888;4.466;2022-10-17T00:59:53;33.63;;;16.08;;
18445;SDS011;9352;50.888;4.466;2022-10-17T01:02:25;30.73;;;14.63;;
18445;SDS011;9352;50.888;4.466;2022-10-17T01:04:52;33.22;;;16.50;;
18445;SDS011;9352;50.888;4.466;2022-10-17T01:07:25;37.25;;;15.70;;
18445;SDS011;9352;50.888;4.466;2022-10-17T01:09:53;36.58;;;16.27;;
18445;SDS011;9352;50.888;4.466;2022-10-17T01:12:21;36.15;;;16.63;;
18445;SDS011;9352;50.888;4.466;2022-10-17T01:14:58;38.95;;;16.77;;
18445;SDS011;9352;50.888;4.466;2022-10-17T01:17:35;44.05;;;16.60;;
18445;SDS011;9352;50.888;4.466;2022-10-17T01:23:14;34.72;;;14.75;;
18445;SDS011;9352;50.888;4.466;2022-10-17T01:25:52;31.73;;;14.15;;
18445;SDS011;9352;50.888;4.466;2022-10-17T01:28:30;34.08;;;15.18;;
18445;SDS011;9352;50.888;4.466;2022-10-17T01:31:09;35.13;;;15.60;;
18445;SDS011;9352;50.888;4.466;2022-10-17T01:33:42;30.33;;;15.13;;
18445;SDS011;9352;50.888;4.466;2022-10-17T01:36:27;34.88;;;15.57;;
18445;SDS011;9352;50.888;4.466;2022-10-17T01:39:01;34.17;;;16.00;;
18445;SDS011;9352;50.888;4.466;2022-10-17T01:41:37;39.38;;;15.50;;
18445;SDS011;9352;50.888;4.466;2022-10-17T01:44:08;31.48;;;14.93;;
18445;SDS011;9352;50.888;4.466;2022-10-17T01:46:40;31.40;;;14.73;;
18445;SDS011;9352;50.888;4.466;2022-10-17T01:49:12;29.38;;;14.85;;
18445;SDS011;9352;50.888;4.466;2022-10-17T01:51:41;35.10;;;14.48;;
18445;SDS011;9352;50.888;4.466;2022-10-17T01:54:12;32.78;;;14.70;;
18445;SDS011;9352;50.888;4.466;2022-10-17T01:56:42;28.27;;;14.15;;
18445;SDS011;9352;50.888;4.466;2022-10-17T01:59:12;27.45;;;14.25;;
18445;SDS011;9352;50.888;4.466;2022-10-17T02:01:46;30.50;;;13.60;;
18445;SDS011;9352;50.888;4.466;2022-10-17T02:04:15;31.27;;;14.18;;
18445;SDS011;9352;50.888;4.466;2022-10-17T02:06:42;30.40;;;14.57;;
18445;SDS011;9352;50.888;4.466;2022-10-17T02:09:14;27.70;;;14.52;;
18445;SDS011;9352;50.888;4.466;2022-10-17T02:11:44;26.83;;;13.75;;
18445;SDS011;9352;50.888;4.466;2022-10-17T02:14:20;20.98;;;12.48;;
18445;SDS011;9352;50.888;4.466;2022-10-17T02:16:59;22.55;;;12.57;;
18445;SDS011;9352;50.888;4.466;2022-10-17T02:19:36;25.90;;;13.02;;
18445;SDS011;9352;50.888;4.466;2022-10-17T02:22:15;20.92;;;12.52;;
18445;SDS011;9352;50.888;4.466;2022-10-17T02:24:51;23.63;;;11.90;;
18445;SDS011;9352;50.888;4.466;2022-10-17T02:27:27;26.38;;;12.98;;
18445;SDS011;9352;50.888;4.466;2022-10-17T02:30:02;33.05;;;13.60;;
18445;SDS011;9352;50.888;4.466;2022-10-17T02:32:35;24.77;;;11.52;;
18445;SDS011;9352;50.888;4.466;2022-10-17T02:35:09;24.48;;;11.82;;
18445;SDS011;9352;50.888;4.466;2022-10-17T02:37:39;22.98;;;12.82;;
18445;SDS011;9352;50.888;4.466;2022-10-17T02:40:09;27.63;;;11.77;;
18445;SDS011;9352;50.888;4.466;2022-10-17T02:42:39;20.05;;;12.10;;
18445;SDS011;9352;50.888;4.466;2022-10-17T02:45:10;24.02;;;11.40;;
18445;SDS011;9352;50.888;4.466;2022-10-17T02:47:40;22.60;;;11.95;;
18445;SDS011;9352;50.888;4.466;2022-10-17T02:50:13;18.50;;;10.77;;
18445;SDS011;9352;50.888;4.466;2022-10-17T02:52:42;25.38;;;11.05;;
18445;SDS011;9352;50.888;4.466;2022-10-17T02:55:15;22.50;;;11.73;;
18445;SDS011;9352;50.888;4.466;2022-10-17T02:57:44;22.38;;;11.70;;
18445;SDS011;9352;50.888;4.466;2022-10-17T03:00:15;20.80;;;11.43;;
18445;SDS011;9352;50.888;4.466;2022-10-17T03:02:46;21.45;;;11.02;;
18445;SDS011;9352;50.888;4.466;2022-10-17T03:05:15;18.15;;;10.75;;
18445;SDS011;9352;50.888;4.466;2022-10-17T03:07:43;24.95;;;11.23;;
18445;SDS011;9352;50.888;4.466;2022-10-17T03:10:10;20.63;;;10.77;;
18445;SDS011;9352;50.888;4.466;2022-10-17T03:12:37;17.88;;;10.68;;
18445;SDS011;9352;50.888;4.466;2022-10-17T03:15:04;21.58;;;9.98;;
18445;SDS011;9352;50.888;4.466;2022-10-17T03:17:32;16.20;;;9.73;;
18445;SDS011;9352;50.888;4.466;2022-10-17T03:20:00;15.00;;;9.07;;
18445;SDS011;9352;50.888;4.466;2022-10-17T03:22:27;17.55;;;9.25;;
18445;SDS011;9352;50.888;4.466;2022-10-17T03:24:54;14.65;;;8.88;;
18445;SDS011;9352;50.888;4.466;2022-10-17T03:27:21;18.15;;;9.50;;
18445;SDS011;9352;50.888;4.466;2022-10-17T03:29:48;13.80;;;9.20;;
18445;SDS011;9352;50.888;4.466;2022-10-17T03:32:15;14.43;;;8.32;;
18445;SDS011;9352;50.888;4.466;2022-10-17T03:34:42;19.67;;;8.90;;
18445;SDS011;9352;50.888;4.466;2022-10-17T03:37:10;13.07;;;8.55;;
18445;SDS011;9352;50.888;4.466;2022-10-17T03:39:37;9.90;;;7.72;;
18445;SDS011;9352;50.888;4.466;2022-10-17T03:42:03;11.90;;;8.20;;
18445;SDS011;9352;50.888;4.466;2022-10-17T03:44:30;13.60;;;8.63;;
18445;SDS011;9352;50.888;4.466;2022-10-17T03:46:57;16.73;;;8.13;;
18445;SDS011;9352;50.888;4.466;2022-10-17T03:49:24;13.00;;;9.00;;
18445;SDS011;9352;50.888;4.466;2022-10-17T03:51:51;18.10;;;8.80;;
18445;SDS011;9352;50.888;4.466;2022-10-17T03:54:19;23.17;;;9.05;;
18445;SDS011;9352;50.888;4.466;2022-10-17T03:56:46;17.88;;;8.63;;
18445;SDS011;9352;50.888;4.466;2022-10-17T03:59:13;15.52;;;9.00;;
18445;SDS011;9352;50.888;4.466;2022-10-17T04:01:40;14.18;;;8.65;;
18445;SDS011;9352;50.888;4.466;2022-10-17T04:04:08;15.38;;;8.07;;
18445;SDS011;9352;50.888;4.466;2022-10-17T04:06:35;12.00;;;8.55;;
18445;SDS011;9352;50.888;4.466;2022-10-17T04:09:03;26.63;;;8.68;;
18445;SDS011;9352;50.888;4.466;2022-10-17T04:11:31;18.45;;;9.30;;
18445;SDS011;9352;50.888;4.466;2022-10-17T04:13:59;16.15;;;8.55;;
18445;SDS011;9352;50.888;4.466;2022-10-17T04:16:26;16.92;;;8.95;;
18445;SDS011;9352;50.888;4.466;2022-10-17T04:18:53;13.90;;;8.80;;
18445;SDS011;9352;50.888;4.466;2022-10-17T04:21:21;15.48;;;9.25;;
18445;SDS011;9352;50.888;4.466;2022-10-17T04:23:51;12.10;;;8.38;;
18445;SDS011;9352;50.888;4.466;2022-10-17T04:26:19;18.55;;;8.57;;
18445;SDS011;9352;50.888;4.466;2022-10-17T04:28:48;18.02;;;9.55;;
18445;SDS011;9352;50.888;4.466;2022-10-17T04:31:15;13.52;;;9.13;;
18445;SDS011;9352;50.888;4.466;2022-10-17T04:33:45;17.00;;;9.20;;
18445;SDS011;9352;50.888;4.466;2022-10-17T04:36:13;17.10;;;9.43;;
18445;SDS011;9352;50.888;4.466;2022-10-17T04:38:41;16.58;;;8.77;;
18445;SDS011;9352;50.888;4.466;2022-10-17T04:41:09;19.27;;;8.90;;
18445;SDS011;9352;50.888;4.466;2022-10-17T04:43:37;15.63;;;9.00;;
18445;SDS011;9352;50.888;4.466;2022-10-17T04:46:06;15.82;;;9.10;;
18445;SDS011;9352;50.888;4.466;2022-10-17T04:48:37;22.58;;;9.57;;
18445;SDS011;9352;50.888;4.466;2022-10-17T04:51:05;18.83;;;9.55;;
18445;SDS011;9352;50.888;4.466;2022-10-17T04:53:33;20.17;;;8.95;;
18445;SDS011;9352;50.888;4.466;2022-10-17T04:56:06;19.50;;;8.95;;
18445;SDS011;9352;50.888;4.466;2022-10-17T04:58:34;14.60;;;8.40;;
18445;SDS011;9352;50.888;4.466;2022-10-17T05:01:06;21.90;;;8.77;;
18445;SDS011;9352;50.888;4.466;2022-10-17T05:03:34;19.38;;;9.32;;
18445;SDS011;9352;50.888;4.466;2022-10-17T05:06:05;16.02;;;8.27;;
18445;SDS011;9352;50.888;4.466;2022-10-17T05:08:33;12.68;;;8.55;;
18445;SDS011;9352;50.888;4.466;2022-10-17T05:10:59;21.30;;;9.20;;
18445;SDS011;9352;50.888;4.466;2022-10-17T05:13:27;15.80;;;9.23;;
18445;SDS011;9352;50.888;4.466;2022-10-17T05:15:57;15.05;;;8.38;;
18445;SDS011;9352;50.888;4.466;2022-10-17T05:18:26;13.63;;;8.40;;
18445;SDS011;9352;50.888;4.466;2022-10-17T05:20:53;14.48;;;8.07;;
18445;SDS011;9352;50.888;4.466;2022-10-17T05:23:20;21.15;;;8.93;;
18445;SDS011;9352;50.888;4.466;2022-10-17T05:25:52;15.00;;;8.30;;
18445;SDS011;9352;50.888;4.466;2022-10-17T05:28:19;15.52;;;8.85;;
18445;SDS011;9352;50.888;4.466;2022-10-17T05:30:46;15.45;;;8.20;;
18445;SDS011;9352;50.888;4.466;2022-10-17T05:33:13;18.75;;;8.15;;
18445;SDS011;9352;50.888;4.466;2022-10-17T05:35:41;20.90;;;7.97;;
18445;SDS011;9352;50.888;4.466;2022-10-17T05:38:08;14.63;;;7.22;;
18445;SDS011;9352;50.888;4.466;2022-10-17T05:40:35;13.80;;;7.75;;
18445;SDS011;9352;50.888;4.466;2022-10-17T05:43:03;16.42;;;8.38;;
18445;SDS011;9352;50.888;4.466;2022-10-17T05:45:30;12.38;;;7.22;;
18445;SDS011;9352;50.888;4.466;2022-10-17T05:47:57;12.50;;;7.07;;
18445;SDS011;9352;50.888;4.466;2022-10-17T05:50:24;9.98;;;7.22;;
18445;SDS011;9352;50.888;4.466;2022-10-17T05:52:53;14.35;;;7.43;;
18445;SDS011;9352;50.888;4.466;2022-10-17T05:55:20;15.10;;;6.80;;
18445;SDS011;9352;50.888;4.466;2022-10-17T05:57:47;24.75;;;7.43;;
18445;SDS011;9352;50.888;4.466;2022-10-17T06:00:14;13.07;;;7.55;;
18445;SDS011;9352;50.888;4.466;2022-10-17T06:02:41;13.98;;;8.02;;
18445;SDS011;9352;50.888;4.466;2022-10-17T06:05:10;15.63;;;6.57;;
18445;SDS011;9352;50.888;4.466;2022-10-17T06:07:37;15.05;;;7.13;;
18445;SDS011;9352;50.888;4.466;2022-10-17T06:10:05;12.57;;;7.40;;
18445;SDS011;9352;50.888;4.466;2022-10-17T06:12:33;16.73;;;7.85;;
18445;SDS011;9352;50.888;4.466;2022-10-17T06:15:00;15.60;;;7.25;;
18445;SDS011;9352;50.888;4.466;2022-10-17T06:17:27;71.43;;;10.73;;
18445;SDS011;9352;50.888;4.466;2022-10-17T06:19:54;158.13;;;15.38;;
18445;SDS011;9352;50.888;4.466;2022-10-17T06:22:21;115.40;;;13.57;;
18445;SDS011;9352;50.888;4.466;2022-10-17T06:24:48;100.93;;;11.50;;
18445;SDS011;9352;50.888;4.466;2022-10-17T06:27:18;11.98;;;5.88;;
18445;SDS011;9352;50.888;4.466;2022-10-17T06:29:45;104.75;;;11.40;;
18445;SDS011;9352;50.888;4.466;2022-10-17T06:32:12;12.20;;;5.95;;
18445;SDS011;9352;50.888;4.466;2022-10-17T06:34:39;9.75;;;6.00;;
18445;SDS011;9352;50.888;4.466;2022-10-17T06:37:05;13.02;;;6.40;;
18445;SDS011;9352;50.888;4.466;2022-10-17T06:39:33;13.27;;;5.60;;
18445;SDS011;9352;50.888;4.466;2022-10-17T06:42:00;8.02;;;5.88;;
18445;SDS011;9352;50.888;4.466;2022-10-17T06:44:29;13.52;;;5.80;;
18445;SDS011;9352;50.888;4.466;2022-10-17T06:46:56;11.98;;;5.53;;
18445;SDS011;9352;50.888;4.466;2022-10-17T06:49:23;10.63;;;5.55;;
18445;SDS011;9352;50.888;4.466;2022-10-17T06:51:50;12.50;;;6.18;;
18445;SDS011;9352;50.888;4.466;2022-10-17T06:54:17;12.55;;;5.78;;
18445;SDS011;9352;50.888;4.466;2022-10-17T06:56:44;14.73;;;6.32;;
18445;SDS011;9352;50.888;4.466;2022-10-17T06:59:11;18.65;;;6.35;;
18445;SDS011;9352;50.888;4.466;2022-10-17T07:01:40;10.70;;;6.03;;
18445;SDS011;9352;50.888;4.466;2022-10-17T07:04:07;12.93;;;6.18;;
18445;SDS011;9352;50.888;4.466;2022-10-17T07:06:34;10.13;;;4.93;;
18445;SDS011;9352;50.888;4.466;2022-10-17T07:09:01;12.18;;;5.35;;
18445;SDS011;9352;50.888;4.466;2022-10-17T07:11:30;12.35;;;5.35;;
18445;SDS011;9352;50.888;4.466;2022-10-17T07:13:58;15.00;;;6.57;;
18445;SDS011;9352;50.888;4.466;2022-10-17T07:16:25;12.45;;;6.65;;
18445;SDS011;9352;50.888;4.466;2022-10-17T07:18:53;8.00;;;4.60;;
18445;SDS011;9352;50.888;4.466;2022-10-17T07:21:21;8.35;;;4.40;;
18445;SDS011;9352;50.888;4.466;2022-10-17T07:23:48;9.82;;;3.75;;
18445;SDS011;9352;50.888;4.466;2022-10-17T07:26:16;9.23;;;4.40;;
18445;SDS011;9352;50.888;4.466;2022-10-17T07:28:44;9.40;;;3.95;;
18445;SDS011;9352;50.888;4.466;2022-10-17T07:31:13;10.07;;;4.45;;
18445;SDS011;9352;50.888;4.466;2022-10-17T07:33:42;8.00;;;4.30;;
18445;SDS011;9352;50.888;4.466;2022-10-17T07:36:13;9.48;;;4.20;;
18445;SDS011;9352;50.888;4.466;2022-10-17T07:38:40;6.43;;;4.45;;
18445;SDS011;9352;50.888;4.466;2022-10-17T07:41:08;7.10;;;4.15;;
18445;SDS011;9352;50.888;4.466;2022-10-17T07:43:36;6.30;;;4.47;;
18445;SDS011;9352;50.888;4.466;2022-10-17T07:46:05;9.23;;;4.68;;
18445;SDS011;9352;50.888;4.466;2022-10-17T07:48:32;9.10;;;5.70;;
18445;SDS011;9352;50.888;4.466;2022-10-17T07:51:00;14.73;;;5.10;;
18445;SDS011;9352;50.888;4.466;2022-10-17T07:53:29;7.88;;;5.00;;
18445;SDS011;9352;50.888;4.466;2022-10-17T07:55:57;14.85;;;5.82;;
18445;SDS011;9352;50.888;4.466;2022-10-17T07:58:23;11.77;;;5.97;;
18445;SDS011;9352;50.888;4.466;2022-10-17T08:00:52;13.93;;;6.30;;
18445;SDS011;9352;50.888;4.466;2022-10-17T08:03:21;13.23;;;6.13;;
18445;SDS011;9352;50.888;4.466;2022-10-17T08:05:48;10.95;;;6.53;;
18445;SDS011;9352;50.888;4.466;2022-10-17T08:08:15;10.05;;;6.00;;
18445;SDS011;9352;50.888;4.466;2022-10-17T08:10:43;11.38;;;6.32;;
18445;SDS011;9352;50.888;4.466;2022-10-17T08:13:10;9.73;;;5.97;;
18445;SDS011;9352;50.888;4.466;2022-10-17T08:15:37;11.35;;;8.50;;
18445;SDS011;9352;50.888;4.466;2022-10-17T08:18:04;10.80;;;7.28;;
18445;SDS011;9352;50.888;4.466;2022-10-17T08:20:31;15.80;;;8.27;;
18445;SDS011;9352;50.888;4.466;2022-10-17T08:22:58;19.65;;;7.88;;
18445;SDS011;9352;50.888;4.466;2022-10-17T08:25:25;15.85;;;8.35;;
18445;SDS011;9352;50.888;4.466;2022-10-17T08:27:53;16.55;;;8.18;;
18445;SDS011;9352;50.888;4.466;2022-10-17T08:30:20;18.05;;;8.95;;
18445;SDS011;9352;50.888;4.466;2022-10-17T08:32:47;17.17;;;8.95;;
18445;SDS011;9352;50.888;4.466;2022-10-17T08:35:14;18.20;;;8.90;;
18445;SDS011;9352;50.888;4.466;2022-10-17T08:37:41;15.77;;;8.77;;
18445;SDS011;9352;50.888;4.466;2022-10-17T08:40:09;20.05;;;9.68;;
18445;SDS011;9352;50.888;4.466;2022-10-17T08:42:57;19.27;;;8.95;;
18445;SDS011;9352;50.888;4.466;2022-10-17T08:45:41;17.55;;;8.75;;
18445;SDS011;9352;50.888;4.466;2022-10-17T08:48:16;17.23;;;9.15;;
18445;SDS011;9352;50.888;4.466;2022-10-17T08:50:46;19.67;;;8.75;;
18445;SDS011;9352;50.888;4.466;2022-10-17T08:53:18;14.27;;;9.02;;
18445;SDS011;9352;50.888;4.466;2022-10-17T08:55:48;19.48;;;8.95;;
18445;SDS011;9352;50.888;4.466;2022-10-17T08:58:18;21.58;;;9.13;;
18445;SDS011;9352;50.888;4.466;2022-10-17T09:00:49;17.30;;;9.70;;
18445;SDS011;9352;50.888;4.466;2022-10-17T09:03:26;15.50;;;8.27;;
18445;SDS011;9352;50.888;4.466;2022-10-17T09:06:13;17.85;;;9.70;;
18445;SDS011;9352;50.888;4.466;2022-10-17T09:08:48;18.58;;;9.90;;
18445;SDS011;9352;50.888;4.466;2022-10-17T09:11:28;18.20;;;9.68;;
18445;SDS011;9352;50.888;4.466;2022-10-17T09:14:09;19.40;;;9.60;;
18445;SDS011;9352;50.888;4.466;2022-10-17T09:16:55;18.88;;;10.20;;
18445;SDS011;9352;50.888;4.466;2022-10-17T09:19:32;17.42;;;10.13;;
18445;SDS011;9352;50.888;4.466;2022-10-17T09:22:02;24.52;;;11.82;;
18445;SDS011;9352;50.888;4.466;2022-10-17T09:24:37;29.73;;;12.20;;
18445;SDS011;9352;50.888;4.466;2022-10-17T09:27:15;19.40;;;11.10;;
18445;SDS011;9352;50.888;4.466;2022-10-17T09:29:51;23.73;;;10.73;;
18445;SDS011;9352;50.888;4.466;2022-10-17T09:32:26;13.70;;;9.55;;
18445;SDS011;9352;50.888;4.466;2022-10-17T09:34:54;19.33;;;10.15;;
18445;SDS011;9352;50.888;4.466;2022-10-17T09:37:21;26.15;;;12.25;;
18445;SDS011;9352;50.888;4.466;2022-10-17T09:39:56;28.40;;;13.57;;
18445;SDS011;9352;50.888;4.466;2022-10-17T09:42:24;28.95;;;13.60;;
18445;SDS011;9352;50.888;4.466;2022-10-17T09:44:54;22.42;;;12.73;;
18445;SDS011;9352;50.888;4.466;2022-10-17T09:47:28;21.73;;;10.90;;
18445;SDS011;9352;50.888;4.466;2022-10-17T09:49:59;16.75;;;10.07;;
18445;SDS011;9352;50.888;4.466;2022-10-17T09:52:28;14.23;;;10.15;;
18445;SDS011;9352;50.888;4.466;2022-10-17T09:55:00;20.42;;;10.70;;
18445;SDS011;9352;50.888;4.466;2022-10-17T09:57:49;15.70;;;9.85;;
18445;SDS011;9352;50.888;4.466;2022-10-17T10:00:21;20.23;;;9.93;;
18445;SDS011;9352;50.888;4.466;2022-10-17T10:02:49;17.63;;;9.25;;
18445;SDS011;9352;50.888;4.466;2022-10-17T10:05:17;15.82;;;9.93;;
18445;SDS011;9352;50.888;4.466;2022-10-17T10:08:01;28.83;;;10.43;;
18445;SDS011;9352;50.888;4.466;2022-10-17T10:10:30;20.08;;;10.10;;
18445;SDS011;9352;50.888;4.466;2022-10-17T10:13:02;18.67;;;9.68;;
18445;SDS011;9352;50.888;4.466;2022-10-17T10:15:33;13.98;;;9.73;;
18445;SDS011;9352;50.888;4.466;2022-10-17T10:18:02;18.40;;;10.27;;
18445;SDS011;9352;50.888;4.466;2022-10-17T10:21:02;20.23;;;11.45;;
18445;SDS011;9352;50.888;4.466;2022-10-17T10:23:31;27.90;;;11.88;;
18445;SDS011;9352;50.888;4.466;2022-10-17T10:26:00;24.83;;;12.55;;
18445;SDS011;9352;50.888;4.466;2022-10-17T10:28:29;25.17;;;12.55;;
18445;SDS011;9352;50.888;4.466;2022-10-17T10:31:00;16.67;;;11.20;;
18445;SDS011;9352;50.888;4.466;2022-10-17T10:33:29;17.20;;;10.02;;
18445;SDS011;9352;50.888;4.466;2022-10-17T10:36:00;31.60;;;11.00;;
18445;SDS011;9352;50.888;4.466;2022-10-17T10:38:28;17.90;;;9.57;;
18445;SDS011;9352;50.888;4.466;2022-10-17T10:41:01;21.92;;;10.18;;
18445;SDS011;9352;50.888;4.466;2022-10-17T10:43:31;20.40;;;9.50;;
18445;SDS011;9352;50.888;4.466;2022-10-17T10:46:02;17.90;;;10.25;;
18445;SDS011;9352;50.888;4.466;2022-10-17T10:48:33;16.65;;;9.60;;
18445;SDS011;9352;50.888;4.466;2022-10-17T10:51:01;20.88;;;9.35;;
18445;SDS011;9352;50.888;4.466;2022-10-17T10:53:35;16.83;;;9.65;;
18445;SDS011;9352;50.888;4.466;2022-10-17T10:56:09;18.58;;;9.85;;
18445;SDS011;9352;50.888;4.466;2022-10-17T10:58:41;20.60;;;9.15;;
18445;SDS011;9352;50.888;4.466;2022-10-17T11:01:23;15.65;;;9.20;;
18445;SDS011;9352;50.888;4.466;2022-10-17T11:04:00;18.30;;;8.45;;
18445;SDS011;9352;50.888;4.466;2022-10-17T11:06:57;19.30;;;9.60;;
18445;SDS011;9352;50.888;4.466;2022-10-17T11:09:31;15.88;;;8.32;;
18445;SDS011;9352;50.888;4.466;2022-10-17T11:12:08;15.02;;;8.95;;
18445;SDS011;9352;50.888;4.466;2022-10-17T11:14:43;13.65;;;8.00;;
18445;SDS011;9352;50.888;4.466;2022-10-17T11:17:21;15.02;;;8.05;;
18445;SDS011;9352;50.888;4.466;2022-10-17T11:19:55;12.30;;;7.85;;
18445;SDS011;9352;50.888;4.466;2022-10-17T11:22:37;16.50;;;7.20;;
18445;SDS011;9352;50.888;4.466;2022-10-17T11:25:13;14.88;;;7.88;;
18445;SDS011;9352;50.888;4.466;2022-10-17T11:27:47;15.23;;;8.23;;
18445;SDS011;9352;50.888;4.466;2022-10-17T11:30:14;14.75;;;7.10;;
18445;SDS011;9352;50.888;4.466;2022-10-17T11:32:47;10.35;;;6.70;;
18445;SDS011;9352;50.888;4.466;2022-10-17T11:35:19;11.25;;;6.95;;
18445;SDS011;9352;50.888;4.466;2022-10-17T11:37:50;15.63;;;7.20;;
18445;SDS011;9352;50.888;4.466;2022-10-17T11:40:24;16.92;;;7.68;;
18445;SDS011;9352;50.888;4.466;2022-10-17T11:42:56;12.50;;;7.68;;
18445;SDS011;9352;50.888;4.466;2022-10-17T11:45:26;16.08;;;8.13;;
18445;SDS011;9352;50.888;4.466;2022-10-17T11:47:59;17.58;;;7.78;;
18445;SDS011;9352;50.888;4.466;2022-10-17T11:50:31;12.73;;;7.18;;
18445;SDS011;9352;50.888;4.466;2022-10-17T11:53:02;20.00;;;7.63;;
18445;SDS011;9352;50.888;4.466;2022-10-17T11:55:34;12.48;;;6.22;;
18445;SDS011;9352;50.888;4.466;2022-10-17T11:58:11;18.63;;;7.05;;
18445;SDS011;9352;50.888;4.466;2022-10-17T12:00:50;10.43;;;7.35;;
18445;SDS011;9352;50.888;4.466;2022-10-17T12:03:27;15.00;;;7.38;;
18445;SDS011;9352;50.888;4.466;2022-10-17T12:06:11;12.48;;;7.68;;
18445;SDS011;9352;50.888;4.466;2022-10-17T12:08:43;18.02;;;7.35;;
18445;SDS011;9352;50.888;4.466;2022-10-17T12:11:22;20.23;;;8.07;;
18445;SDS011;9352;50.888;4.466;2022-10-17T12:13:58;15.27;;;7.20;;
18445;SDS011;9352;50.888;4.466;2022-10-17T12:16:35;15.68;;;7.22;;
18445;SDS011;9352;50.888;4.466;2022-10-17T12:22:16;13.77;;;7.78;;
18445;SDS011;9352;50.888;4.466;2022-10-17T12:24:52;13.75;;;7.90;;
18445;SDS011;9352;50.888;4.466;2022-10-17T12:30:15;13.95;;;8.25;;
18445;SDS011;9352;50.888;4.466;2022-10-17T12:32:55;18.10;;;7.97;;
18445;SDS011;9352;50.888;4.466;2022-10-17T12:35:29;14.77;;;8.25;;
18445;SDS011;9352;50.888;4.466;2022-10-17T12:38:14;15.27;;;8.25;;
18445;SDS011;9352;50.888;4.466;2022-10-17T12:40:56;13.75;;;7.20;;
18445;SDS011;9352;50.888;4.466;2022-10-17T12:49:19;13.68;;;8.27;;
18445;SDS011;9352;50.888;4.466;2022-10-17T12:52:12;16.00;;;7.88;;
18445;SDS011;9352;50.888;4.466;2022-10-17T12:54:45;14.35;;;8.15;;
18445;SDS011;9352;50.888;4.466;2022-10-17T13:00:00;18.27;;;8.05;;
18445;SDS011;9352;50.888;4.466;2022-10-17T13:02:30;11.93;;;8.63;;
18445;SDS011;9352;50.888;4.466;2022-10-17T13:05:02;14.85;;;8.15;;
18445;SDS011;9352;50.888;4.466;2022-10-17T13:07:34;17.58;;;8.70;;
18445;SDS011;9352;50.888;4.466;2022-10-17T13:10:02;15.88;;;8.23;;
18445;SDS011;9352;50.888;4.466;2022-10-17T13:12:31;13.88;;;7.93;;
18445;SDS011;9352;50.888;4.466;2022-10-17T13:15:03;14.65;;;7.43;;
18445;SDS011;9352;50.888;4.466;2022-10-17T13:17:32;13.15;;;6.90;;
18445;SDS011;9352;50.888;4.466;2022-10-17T13:19:59;12.52;;;7.35;;
18445;SDS011;9352;50.888;4.466;2022-10-17T13:22:28;11.10;;;6.93;;
18445;SDS011;9352;50.888;4.466;2022-10-17T13:25:08;16.38;;;7.35;;
18445;SDS011;9352;50.888;4.466;2022-10-17T13:27:39;12.68;;;6.13;;
18445;SDS011;9352;50.888;4.466;2022-10-17T13:30:24;11.07;;;5.82;;
18445;SDS011;9352;50.888;4.466;2022-10-17T13:32:53;14.73;;;6.43;;
18445;SDS011;9352;50.888;4.466;2022-10-17T13:35:24;13.77;;;5.38;;
18445;SDS011;9352;50.888;4.466;2022-10-17T13:37:53;9.45;;;5.28;;
18445;SDS011;9352;50.888;4.466;2022-10-17T13:40:23;7.38;;;5.25;;
18445;SDS011;9352;50.888;4.466;2022-10-17T13:42:52;10.23;;;5.18;;
18445;SDS011;9352;50.888;4.466;2022-10-17T13:45:23;9.32;;;5.03;;
18445;SDS011;9352;50.888;4.466;2022-10-17T13:47:55;10.07;;;4.65;;
18445;SDS011;9352;50.888;4.466;2022-10-17T13:50:25;8.88;;;4.30;;
18445;SDS011;9352;50.888;4.466;2022-10-17T13:53:17;5.85;;;4.50;;
18445;SDS011;9352;50.888;4.466;2022-10-17T13:55:51;10.85;;;4.13;;
18445;SDS011;9352;50.888;4.466;2022-10-17T13:58:19;9.02;;;4.20;;
18445;SDS011;9352;50.888;4.466;2022-10-17T14:00:46;10.45;;;4.53;;
18445;SDS011;9352;50.888;4.466;2022-10-17T14:03:14;5.72;;;3.65;;
18445;SDS011;9352;50.888;4.466;2022-10-17T14:05:57;3.83;;;3.42;;
18445;SDS011;9352;50.888;4.466;2022-10-17T14:08:36;5.20;;;3.53;;
18445;SDS011;9352;50.888;4.466;2022-10-17T14:11:13;7.10;;;3.63;;
18445;SDS011;9352;50.888;4.466;2022-10-17T14:13:47;5.10;;;3.28;;
18445;SDS011;9352;50.888;4.466;2022-10-17T14:16:15;9.43;;;3.47;;
18445;SDS011;9352;50.888;4.466;2022-10-17T14:18:44;7.97;;;5.45;;
18445;SDS011;9352;50.888;4.466;2022-10-17T14:21:16;3.67;;;3.33;;
18445;SDS011;9352;50.888;4.466;2022-10-17T14:23:45;8.15;;;3.65;;
18445;SDS011;9352;50.888;4.466;2022-10-17T14:26:15;4.70;;;2.90;;
18445;SDS011;9352;50.888;4.466;2022-10-17T14:28:45;4.97;;;3.10;;
18445;SDS011;9352;50.888;4.466;2022-10-17T14:31:20;8.98;;;3.00;;
18445;SDS011;9352;50.888;4.466;2022-10-17T14:33:50;4.72;;;3.42;;
18445;SDS011;9352;50.888;4.466;2022-10-17T14:36:19;6.55;;;4.10;;
18445;SDS011;9352;50.888;4.466;2022-10-17T14:38:54;5.57;;;3.28;;
18445;SDS011;9352;50.888;4.466;2022-10-17T14:41:24;6.93;;;3.33;;
18445;SDS011;9352;50.888;4.466;2022-10-17T14:43:56;3.95;;;3.50;;
18445;SDS011;9352;50.888;4.466;2022-10-17T14:46:24;7.40;;;3.67;;
18445;SDS011;9352;50.888;4.466;2022-10-17T14:48:53;4.50;;;3.20;;
18445;SDS011;9352;50.888;4.466;2022-10-17T14:51:21;7.22;;;3.88;;
18445;SDS011;9352;50.888;4.466;2022-10-17T14:53:59;4.65;;;3.50;;
18445;SDS011;9352;50.888;4.466;2022-10-17T14:56:34;3.83;;;3.28;;
18445;SDS011;9352;50.888;4.466;2022-10-17T14:59:04;6.97;;;3.03;;
18445;SDS011;9352;50.888;4.466;2022-10-17T15:01:31;3.83;;;3.33;;
18445;SDS011;9352;50.888;4.466;2022-10-17T15:03:59;8.32;;;3.13;;
18445;SDS011;9352;50.888;4.466;2022-10-17T15:06:27;6.25;;;2.97;;
18445;SDS011;9352;50.888;4.466;2022-10-17T15:08:57;9.48;;;3.00;;
18445;SDS011;9352;50.888;4.466;2022-10-17T15:11:24;6.57;;;3.00;;
18445;SDS011;9352;50.888;4.466;2022-10-17T15:13:52;4.97;;;2.97;;
18445;SDS011;9352;50.888;4.466;2022-10-17T15:16:19;5.50;;;3.50;;
18445;SDS011;9352;50.888;4.466;2022-10-17T15:18:47;5.90;;;3.33;;
18445;SDS011;9352;50.888;4.466;2022-10-17T15:21:16;7.25;;;3.40;;
18445;SDS011;9352;50.888;4.466;2022-10-17T15:23:44;6.88;;;3.40;;